createdAt,value
2018-01-11T00:00:41.473Z,17.68
2018-01-11T00:01:41.469Z,18.02
2018-01-11T00:02:41.466Z,18.84
2018-01-11T00:03:41.464Z,17.73
2018-01-11T00:04:41.451Z,16.18
2018-01-11T00:05:41.442Z,16.30
2018-01-11T00:06:41.442Z,17.80
2018-01-11T00:07:41.429Z,19.64
2018-01-11T00:08:41.426Z,18.48
2018-01-11T00:09:41.419Z,17.79
2018-01-11T00:10:41.411Z,17.24
2018-01-11T00:11:41.404Z,19.01
2018-01-11T00:12:41.392Z,19.29
2018-01-11T00:13:41.394Z,18.46
2018-01-11T00:14:41.376Z,18.18
2018-01-11T00:15:41.379Z,19.22
2018-01-11T00:16:41.369Z,17.00
2018-01-11T00:17:41.361Z,18.32
2018-01-11T00:18:41.354Z,19.17
2018-01-11T00:19:41.346Z,18.26
2018-01-11T00:20:41.337Z,18.31
2018-01-11T00:21:41.337Z,17.75
2018-01-11T00:22:41.323Z,17.98
2018-01-11T00:23:41.316Z,16.51
2018-01-11T00:24:41.298Z,17.17
2018-01-11T00:25:41.297Z,18.24
2018-01-11T00:26:41.295Z,19.24
2018-01-11T00:27:41.278Z,17.28
2018-01-11T00:28:41.278Z,16.82
2018-01-11T00:29:41.272Z,18.34
2018-01-11T00:30:41.269Z,17.72
2018-01-11T00:31:41.261Z,16.29
2018-01-11T00:32:41.256Z,16.51
2018-01-11T00:33:41.247Z,17.87
2018-01-11T00:34:41.238Z,17.50
2018-01-11T00:35:41.232Z,17.94
2018-01-11T00:36:41.224Z,17.52
2018-01-11T00:37:41.217Z,17.80
2018-01-11T00:38:41.730Z,19.02
2018-01-11T00:39:41.204Z,16.51
2018-01-11T00:40:41.194Z,17.12
2018-01-11T00:41:41.196Z,17.92
2018-01-11T00:42:41.178Z,18.06
2018-01-11T00:43:41.168Z,19.04
2018-01-11T00:44:41.158Z,17.82
2018-01-11T00:45:41.160Z,18.30
2018-01-11T00:46:41.152Z,18.50
2018-01-11T00:47:41.139Z,21.46
2018-01-11T00:48:41.139Z,16.96
2018-01-11T00:49:41.134Z,18.35
2018-01-11T00:50:41.124Z,16.52
2018-01-11T00:51:41.117Z,16.62
2018-01-11T00:52:41.124Z,17.31
2018-01-11T00:53:41.743Z,15.01
2018-01-11T00:54:41.092Z,15.70
2018-01-11T00:55:41.087Z,16.88
2018-01-11T00:56:41.089Z,17.34
2018-01-11T00:57:41.076Z,18.25
2018-01-11T00:58:41.066Z,15.83
2018-01-11T00:59:41.057Z,15.64
2018-01-11T01:00:41.051Z,18.78
2018-01-11T01:01:41.044Z,17.26
2018-01-11T01:02:41.040Z,16.61
2018-01-11T01:03:41.027Z,16.41
2018-01-11T01:04:41.023Z,18.40
2018-01-11T01:05:41.018Z,19.89
2018-01-11T01:06:41.007Z,15.96
2018-01-11T01:07:40.999Z,18.09
2018-01-11T01:08:40.996Z,17.30
2018-01-11T01:09:40.988Z,15.55
2018-01-11T01:10:40.978Z,18.15
2018-01-11T01:11:40.973Z,19.42
2018-01-11T01:12:40.965Z,16.56
2018-01-11T01:13:40.949Z,17.24
2018-01-11T01:14:40.949Z,17.04
2018-01-11T01:15:40.938Z,17.06
2018-01-11T01:16:40.935Z,18.59
2018-01-11T01:17:40.926Z,16.09
2018-01-11T01:18:40.925Z,18.58
2018-01-11T01:19:40.916Z,18.56
2018-01-11T01:20:40.902Z,14.97
2018-01-11T01:21:40.911Z,16.17
2018-01-11T01:22:40.893Z,18.36
2018-01-11T01:23:40.884Z,17.38
2018-01-11T01:24:40.874Z,16.69
2018-01-11T01:25:40.878Z,15.92
2018-01-11T01:26:40.868Z,17.91
2018-01-11T01:27:40.857Z,18.39
2018-01-11T01:28:40.846Z,16.48
2018-01-11T01:29:40.846Z,17.27
2018-01-11T01:30:40.847Z,17.40
2018-01-11T01:31:40.845Z,17.55
2018-01-11T01:32:40.840Z,15.96
2018-01-11T01:33:40.815Z,17.66
2018-01-11T01:34:40.816Z,15.48
2018-01-11T01:35:40.798Z,16.54
2018-01-11T01:36:40.796Z,17.04
2018-01-11T01:37:40.785Z,15.97
2018-01-11T01:38:40.791Z,17.38
2018-01-11T01:39:40.806Z,17.40
2018-01-11T01:40:40.761Z,16.74
2018-01-11T01:41:40.754Z,17.03
2018-01-11T01:42:40.751Z,16.30
2018-01-11T01:43:40.749Z,15.86
2018-01-11T01:44:40.752Z,16.39
2018-01-11T01:45:40.734Z,17.52
2018-01-11T01:46:40.723Z,16.85
2018-01-11T01:47:40.716Z,17.35
2018-01-11T01:48:40.713Z,16.66
2018-01-11T01:49:40.702Z,16.92
2018-01-11T01:50:40.684Z,18.14
2018-01-11T01:51:41.256Z,16.50
2018-01-11T01:52:40.674Z,15.70
2018-01-11T01:53:40.672Z,17.64
2018-01-11T01:54:40.658Z,15.83
2018-01-11T01:55:40.655Z,15.76
2018-01-11T01:56:40.646Z,17.04
2018-01-11T01:57:40.644Z,17.50
2018-01-11T01:58:40.639Z,16.18
2018-01-11T01:59:40.632Z,18.08
2018-01-11T02:00:40.624Z,15.26
2018-01-11T02:01:40.612Z,16.00
2018-01-11T02:02:40.612Z,18.16
2018-01-11T02:03:40.623Z,17.03
2018-01-11T02:04:40.595Z,16.62
2018-01-11T02:05:40.592Z,16.84
2018-01-11T02:06:40.576Z,14.95
2018-01-11T02:07:40.562Z,17.00
2018-01-11T02:08:40.560Z,18.74
2018-01-11T02:09:40.545Z,16.56
2018-01-11T02:10:40.548Z,16.99
2018-01-11T02:11:40.541Z,16.96
2018-01-11T02:12:40.533Z,17.54
2018-01-11T02:13:40.528Z,17.16
2018-01-11T02:14:40.514Z,16.21
2018-01-11T02:15:40.506Z,18.21
2018-01-11T02:16:40.509Z,17.39
2018-01-11T02:17:40.498Z,16.46
2018-01-11T02:18:40.491Z,17.82
2018-01-11T02:19:40.485Z,15.88
2018-01-11T02:20:40.469Z,15.85
2018-01-11T02:21:40.473Z,16.11
2018-01-11T02:22:40.457Z,15.29
2018-01-11T02:23:40.450Z,16.64
2018-01-11T02:24:40.442Z,16.99
2018-01-11T02:25:41.269Z,15.58
2018-01-11T02:26:40.436Z,14.84
2018-01-11T02:27:40.424Z,15.72
2018-01-11T02:28:40.417Z,15.65
2018-01-11T02:29:40.411Z,15.89
2018-01-11T02:30:40.401Z,18.98
2018-01-11T02:31:40.391Z,15.27
2018-01-11T02:32:40.384Z,15.24
2018-01-11T02:33:40.379Z,14.96
2018-01-11T02:34:40.374Z,18.41
2018-01-11T02:35:40.364Z,18.04
2018-01-11T02:36:40.353Z,15.58
2018-01-11T02:37:40.346Z,17.28
2018-01-11T02:38:40.346Z,14.09
2018-01-11T02:39:40.340Z,15.04
2018-01-11T02:40:40.328Z,14.90
2018-01-11T02:41:40.329Z,16.06
2018-01-11T02:42:40.316Z,14.16
2018-01-11T02:43:40.305Z,16.54
2018-01-11T02:44:40.298Z,15.51
2018-01-11T02:45:40.292Z,15.24
2018-01-11T02:46:40.284Z,17.15
2018-01-11T02:47:40.282Z,15.91
2018-01-11T02:48:40.272Z,14.73
2018-01-11T02:49:40.265Z,17.02
2018-01-11T02:50:40.253Z,17.02
2018-01-11T02:51:40.246Z,14.82
2018-01-11T02:52:40.241Z,16.29
2018-01-11T02:53:40.238Z,15.49
2018-01-11T02:54:40.785Z,16.31
2018-01-11T02:55:40.222Z,15.57
2018-01-11T02:56:40.215Z,17.73
2018-01-11T02:57:40.218Z,16.48
2018-01-11T02:58:40.199Z,16.28
2018-01-11T02:59:40.195Z,15.68
2018-01-11T03:00:40.189Z,17.17
2018-01-11T03:01:40.191Z,15.78
2018-01-11T03:02:40.168Z,16.54
2018-01-11T03:03:40.162Z,15.74
2018-01-11T03:04:40.158Z,17.19
2018-01-11T03:05:40.147Z,15.23
2018-01-11T03:06:40.136Z,14.38
2018-01-11T03:07:40.132Z,16.05
2018-01-11T03:08:40.124Z,15.49
2018-01-11T03:09:40.120Z,15.02
2018-01-11T03:10:40.111Z,16.32
2018-01-11T03:11:40.101Z,16.41
2018-01-11T03:12:40.538Z,15.57
2018-01-11T03:13:40.137Z,14.51
2018-01-11T03:14:40.088Z,14.92
2018-01-11T03:15:40.071Z,15.40
2018-01-11T03:16:40.078Z,15.66
2018-01-11T03:17:40.059Z,15.18
2018-01-11T03:18:40.052Z,13.28
2018-01-11T03:19:40.042Z,15.03
2018-01-11T03:20:40.040Z,16.16
2018-01-11T03:21:40.028Z,14.81
2018-01-11T03:22:40.021Z,14.83
2018-01-11T03:23:40.013Z,14.80
2018-01-11T03:24:40.006Z,14.81
2018-01-11T03:25:39.999Z,14.81
2018-01-11T03:26:39.993Z,17.32
2018-01-11T03:27:39.989Z,15.99
2018-01-11T03:28:39.982Z,15.48
2018-01-11T03:29:39.974Z,15.03
2018-01-11T03:30:39.967Z,14.70
2018-01-11T03:31:39.956Z,14.78
2018-01-11T03:32:39.947Z,17.20
2018-01-11T03:33:39.943Z,17.52
2018-01-11T03:34:39.932Z,14.86
2018-01-11T03:35:39.926Z,15.59
2018-01-11T03:36:39.921Z,16.22
2018-01-11T03:37:39.910Z,16.76
2018-01-11T03:38:39.904Z,13.96
2018-01-11T03:39:39.890Z,15.26
2018-01-11T03:40:39.880Z,15.33
2018-01-11T03:41:39.888Z,14.20
2018-01-11T03:42:39.874Z,16.95
2018-01-11T03:43:39.870Z,14.91
2018-01-11T03:44:39.861Z,15.88
2018-01-11T03:45:39.848Z,15.04
2018-01-11T03:46:39.851Z,16.59
2018-01-11T03:47:39.837Z,15.12
2018-01-11T03:48:39.839Z,16.44
2018-01-11T03:49:39.828Z,16.57
2018-01-11T03:50:39.818Z,15.98
2018-01-11T03:51:39.806Z,15.94
2018-01-11T03:52:39.799Z,16.14
2018-01-11T03:53:39.792Z,14.56
2018-01-11T03:54:39.783Z,14.48
2018-01-11T03:55:39.771Z,18.13
2018-01-11T03:56:39.770Z,15.32
2018-01-11T03:57:39.764Z,17.08
2018-01-11T03:58:39.772Z,16.96
2018-01-11T03:59:39.790Z,16.73
2018-01-11T04:00:39.735Z,14.26
2018-01-11T04:01:39.737Z,15.92
2018-01-11T04:02:39.723Z,15.94
2018-01-11T04:03:39.722Z,16.94
2018-01-11T04:04:39.713Z,16.25
2018-01-11T04:05:39.707Z,16.64
2018-01-11T04:06:39.696Z,17.90
2018-01-11T04:07:39.684Z,18.26
2018-01-11T04:08:39.682Z,16.97
2018-01-11T04:09:39.672Z,16.86
2018-01-11T04:10:39.668Z,19.20
2018-01-11T04:11:39.663Z,20.14
2018-01-11T04:12:39.652Z,17.89
2018-01-11T04:13:39.640Z,16.18
2018-01-11T04:14:39.637Z,18.00
2018-01-11T04:15:39.634Z,20.91
2018-01-11T04:16:39.627Z,19.32
2018-01-11T04:17:39.616Z,18.04
2018-01-11T04:18:39.654Z,17.51
2018-01-11T04:19:39.597Z,18.45
2018-01-11T04:20:39.597Z,18.25
2018-01-11T04:21:39.584Z,19.71
2018-01-11T04:22:39.570Z,21.47
2018-01-11T04:23:39.568Z,17.66
2018-01-11T04:24:39.598Z,17.70
2018-01-11T04:25:39.553Z,18.03
2018-01-11T04:26:39.549Z,18.37
2018-01-11T04:27:39.531Z,18.47
2018-01-11T04:28:39.528Z,19.63
2018-01-11T04:29:39.523Z,19.46
2018-01-11T04:30:39.517Z,19.34
2018-01-11T04:31:39.512Z,16.96
2018-01-11T04:32:39.501Z,18.61
2018-01-11T04:33:39.492Z,18.86
2018-01-11T04:34:39.478Z,17.40
2018-01-11T04:35:39.469Z,17.87
2018-01-11T04:36:39.460Z,18.14
2018-01-11T04:37:39.456Z,20.20
2018-01-11T04:38:39.451Z,19.15
2018-01-11T04:39:39.443Z,23.92
2018-01-11T04:40:39.434Z,23.22
2018-01-11T04:41:39.435Z,19.80
2018-01-11T04:42:39.419Z,17.73
2018-01-11T04:43:39.408Z,20.62
2018-01-11T04:44:39.400Z,18.54
2018-01-11T04:45:39.394Z,19.12
2018-01-11T04:46:40.320Z,19.41
2018-01-11T04:47:39.380Z,19.81
2018-01-11T04:48:39.371Z,18.69
2018-01-11T04:49:39.362Z,20.61
2018-01-11T04:50:39.354Z,19.76
2018-01-11T04:51:39.353Z,20.48
2018-01-11T04:52:39.347Z,20.07
2018-01-11T04:53:39.331Z,19.74
2018-01-11T04:54:39.325Z,19.78
2018-01-11T04:55:39.318Z,18.73
2018-01-11T04:56:39.310Z,19.82
2018-01-11T04:57:39.304Z,20.85
2018-01-11T04:58:39.299Z,19.58
2018-01-11T04:59:39.286Z,20.95
2018-01-11T05:00:39.279Z,18.67
2018-01-11T05:01:39.293Z,19.03
2018-01-11T05:02:39.261Z,19.54
2018-01-11T05:03:39.257Z,18.78
2018-01-11T05:04:39.245Z,18.57
2018-01-11T05:05:39.239Z,19.21
2018-01-11T05:06:39.227Z,20.72
2018-01-11T05:07:39.222Z,19.00
2018-01-11T05:08:39.211Z,16.76
2018-01-11T05:09:39.206Z,18.75
2018-01-11T05:10:39.200Z,17.61
2018-01-11T05:11:39.192Z,17.03
2018-01-11T05:12:39.186Z,16.95
2018-01-11T05:13:39.171Z,19.32
2018-01-11T05:14:39.172Z,19.50
2018-01-11T05:15:39.157Z,18.46
2018-01-11T05:16:39.157Z,17.67
2018-01-11T05:17:39.839Z,19.24
2018-01-11T05:18:39.130Z,17.23
2018-01-11T05:19:39.121Z,17.62
2018-01-11T05:20:39.125Z,17.47
2018-01-11T05:21:39.135Z,18.49
2018-01-11T05:22:39.106Z,18.31
2018-01-11T05:23:39.088Z,16.24
2018-01-11T05:24:39.085Z,17.31
2018-01-11T05:25:39.092Z,18.03
2018-01-11T05:26:39.080Z,19.29
2018-01-11T05:27:39.066Z,17.79
2018-01-11T05:28:39.058Z,18.65
2018-01-11T05:29:39.053Z,18.34
2018-01-11T05:30:39.047Z,18.87
2018-01-11T05:31:39.044Z,19.08
2018-01-11T05:32:39.031Z,17.40
2018-01-11T05:33:39.023Z,17.13
2018-01-11T05:34:39.018Z,19.33
2018-01-11T05:35:39.004Z,16.67
2018-01-11T05:36:38.996Z,16.86
2018-01-11T05:37:38.985Z,19.19
2018-01-11T05:38:38.994Z,19.27
2018-01-11T05:39:38.988Z,16.60
2018-01-11T05:40:38.968Z,16.81
2018-01-11T05:41:38.955Z,16.37
2018-01-11T05:42:38.950Z,17.74
2018-01-11T05:43:38.955Z,18.08
2018-01-11T05:44:38.934Z,16.67
2018-01-11T05:45:38.937Z,18.04
2018-01-11T05:46:38.937Z,16.66
2018-01-11T05:47:38.913Z,16.96
2018-01-11T05:48:38.897Z,16.60
2018-01-11T05:49:38.888Z,17.71
2018-01-11T05:50:38.894Z,18.84
2018-01-11T05:51:38.901Z,17.70
2018-01-11T05:52:38.869Z,18.52
2018-01-11T05:53:40.709Z,18.36
2018-01-11T05:54:39.570Z,18.38
2018-01-11T05:55:38.854Z,19.07
2018-01-11T05:56:38.849Z,16.78
2018-01-11T05:57:38.834Z,20.18
2018-01-11T05:58:38.846Z,19.32
2018-01-11T05:59:38.828Z,18.22
2018-01-11T06:00:38.812Z,17.37
2018-01-11T06:01:38.841Z,17.62
2018-01-11T06:02:38.805Z,19.20
2018-01-11T06:03:38.783Z,17.59
2018-01-11T06:04:38.779Z,18.18
2018-01-11T06:05:38.784Z,18.92
2018-01-11T06:06:38.783Z,20.02
2018-01-11T06:07:38.770Z,19.68
2018-01-11T06:08:38.764Z,18.00
2018-01-11T06:09:38.752Z,18.50
2018-01-11T06:10:38.738Z,19.24
2018-01-11T06:11:38.733Z,16.90
2018-01-11T06:12:38.738Z,18.05
2018-01-11T06:13:38.717Z,19.47
2018-01-11T06:14:38.703Z,20.03
2018-01-11T06:15:38.692Z,19.86
2018-01-11T06:16:38.689Z,18.90
2018-01-11T06:17:38.699Z,17.39
2018-01-11T06:18:38.667Z,17.55
2018-01-11T06:19:38.698Z,16.56
2018-01-11T06:20:38.666Z,17.41
2018-01-11T06:21:38.647Z,18.37
2018-01-11T06:22:38.663Z,18.05
2018-01-11T06:23:38.641Z,17.76
2018-01-11T06:24:38.635Z,16.54
2018-01-11T06:25:38.649Z,19.07
2018-01-11T06:26:38.641Z,18.99
2018-01-11T06:27:38.608Z,22.40
2018-01-11T06:28:38.598Z,20.76
2018-01-11T06:29:38.597Z,19.90
2018-01-11T06:30:38.581Z,18.60
2018-01-11T06:31:38.582Z,18.95
2018-01-11T06:32:38.578Z,20.52
2018-01-11T06:33:38.559Z,19.25
2018-01-11T06:34:39.364Z,16.37
2018-01-11T06:35:38.544Z,16.58
2018-01-11T06:36:38.547Z,17.23
2018-01-11T06:37:38.545Z,17.76
2018-01-11T06:38:38.525Z,19.84
2018-01-11T06:39:38.521Z,18.14
2018-01-11T06:40:38.523Z,17.24
2018-01-11T06:41:38.508Z,16.76
2018-01-11T06:42:38.490Z,18.08
2018-01-11T06:43:39.366Z,16.49
2018-01-11T06:44:38.487Z,18.06
2018-01-11T06:45:38.489Z,17.20
2018-01-11T06:46:38.466Z,18.48
2018-01-11T06:47:38.456Z,18.00
2018-01-11T06:48:38.450Z,17.07
2018-01-11T06:49:38.448Z,16.86
2018-01-11T06:50:38.443Z,18.19
2018-01-11T06:51:38.468Z,17.34
2018-01-11T06:52:41.367Z,17.65
2018-01-11T06:53:39.392Z,18.82
2018-01-11T06:54:38.408Z,19.16
2018-01-11T06:55:38.395Z,19.15
2018-01-11T06:56:38.381Z,17.96
2018-01-11T06:57:38.400Z,17.01
2018-01-11T06:58:38.373Z,17.79
2018-01-11T06:59:38.364Z,19.16
2018-01-11T07:00:38.354Z,19.88
2018-01-11T07:01:38.353Z,18.47
2018-01-11T07:02:38.357Z,18.40
2018-01-11T07:03:38.348Z,17.37
2018-01-11T07:04:38.325Z,16.44
2018-01-11T07:05:38.366Z,16.08
2018-01-11T07:06:38.331Z,16.38
2018-01-11T07:07:38.308Z,17.88
2018-01-11T07:08:38.306Z,16.65
2018-01-11T07:09:38.292Z,18.95
2018-01-11T07:10:38.276Z,18.10
2018-01-11T07:11:38.269Z,17.28
2018-01-11T07:12:38.278Z,18.24
2018-01-11T07:13:38.269Z,16.70
2018-01-11T07:14:38.253Z,17.12
2018-01-11T07:15:38.242Z,17.84
2018-01-11T07:16:38.240Z,19.30
2018-01-11T07:17:38.225Z,17.29
2018-01-11T07:18:38.219Z,17.96
2018-01-11T07:19:38.228Z,16.54
2018-01-11T07:20:38.205Z,18.62
2018-01-11T07:21:38.204Z,20.08
2018-01-11T07:22:38.205Z,18.39
2018-01-11T07:23:38.188Z,18.90
2018-01-11T07:24:38.191Z,17.18
2018-01-11T07:25:38.177Z,19.26
2018-01-11T07:26:38.165Z,16.33
2018-01-11T07:27:38.147Z,17.99
2018-01-11T07:28:38.143Z,17.47
2018-01-11T07:29:38.141Z,19.87
2018-01-11T07:30:38.130Z,22.69
2018-01-11T07:31:38.127Z,19.52
2018-01-11T07:32:38.113Z,19.10
2018-01-11T07:33:38.111Z,18.97
2018-01-11T07:34:38.106Z,17.54
2018-01-11T07:35:38.095Z,18.02
2018-01-11T07:36:38.090Z,19.67
2018-01-11T07:37:38.084Z,17.52
2018-01-11T07:38:38.075Z,16.71
2018-01-11T07:39:38.066Z,17.60
2018-01-11T07:40:38.059Z,18.16
2018-01-11T07:41:38.071Z,16.90
2018-01-11T07:42:38.053Z,17.18
2018-01-11T07:43:38.030Z,18.24
2018-01-11T07:44:38.023Z,19.52
2018-01-11T07:45:38.020Z,18.65
2018-01-11T07:46:38.013Z,20.23
2018-01-11T07:47:38.008Z,22.66
2018-01-11T07:48:37.996Z,18.18
2018-01-11T07:49:38.007Z,19.10
2018-01-11T07:50:37.980Z,18.11
2018-01-11T07:51:37.964Z,18.70
2018-01-11T07:52:37.963Z,21.26
2018-01-11T07:53:37.953Z,18.24
2018-01-11T07:54:37.943Z,19.63
2018-01-11T07:55:37.933Z,18.90
2018-01-11T07:56:37.936Z,18.48
2018-01-11T07:57:37.930Z,16.10
2018-01-11T07:58:37.915Z,17.00
2018-01-11T07:59:37.908Z,17.76
2018-01-11T08:00:37.914Z,17.88
2018-01-11T08:01:37.908Z,19.45
2018-01-11T08:02:37.896Z,18.10
2018-01-11T08:03:37.880Z,17.43
2018-01-11T08:04:37.889Z,17.38
2018-01-11T08:05:37.866Z,17.73
2018-01-11T08:06:37.867Z,17.06
2018-01-11T08:07:37.854Z,17.83
2018-01-11T08:08:37.858Z,16.50
2018-01-11T08:09:37.833Z,18.79
2018-01-11T08:10:37.828Z,19.57
2018-01-11T08:11:37.823Z,19.92
2018-01-11T08:12:37.836Z,17.09
2018-01-11T08:13:37.811Z,17.02
2018-01-11T08:14:37.827Z,17.52
2018-01-11T08:15:37.792Z,17.82
2018-01-11T08:16:37.796Z,16.45
2018-01-11T08:17:37.801Z,18.42
2018-01-11T08:18:37.781Z,17.48
2018-01-11T08:19:37.757Z,17.58
2018-01-11T08:20:37.759Z,17.50
2018-01-11T08:21:37.748Z,18.31
2018-01-11T08:22:37.740Z,16.96
2018-01-11T08:23:37.749Z,15.84
2018-01-11T08:24:37.727Z,17.51
2018-01-11T08:25:46.021Z,17.78
2018-01-11T08:28:31.151Z,16.77
2018-01-11T08:29:22.077Z,20.16
2018-01-11T08:32:06.475Z,19.52
2018-01-11T08:33:06.415Z,17.04
2018-01-11T08:35:50.812Z,16.83
2018-01-11T08:36:50.783Z,18.06
2018-01-11T08:39:35.203Z,18.20
2018-01-11T08:40:35.135Z,16.85
2018-01-11T08:43:18.530Z,19.97
2018-01-11T08:44:18.495Z,18.97
2018-01-11T08:47:02.420Z,19.22
2018-01-11T08:48:01.867Z,19.08
2018-01-11T08:50:45.237Z,21.01
2018-01-11T08:51:45.246Z,20.56
2018-01-11T08:54:29.644Z,22.54
2018-01-11T08:55:29.549Z,18.84
2018-01-11T08:58:14.006Z,20.48
2018-01-11T08:59:14.478Z,19.45
2018-01-11T09:01:57.339Z,19.74
2018-01-11T09:02:57.874Z,21.78
2018-01-11T09:05:41.650Z,21.04
2018-01-11T09:06:41.609Z,22.50
2018-01-11T09:07:41.606Z,21.98
2018-01-11T09:08:41.605Z,20.98
2018-01-11T09:09:41.601Z,25.69
2018-01-11T09:10:41.579Z,21.72
2018-01-11T09:11:41.582Z,21.73
2018-01-11T09:12:41.567Z,23.47
2018-01-11T09:13:41.559Z,22.53
2018-01-11T09:14:41.573Z,25.37
2018-01-11T09:15:41.546Z,24.41
2018-01-11T09:16:41.536Z,24.76
2018-01-11T09:17:41.537Z,25.02
2018-01-11T09:18:41.526Z,23.98
2018-01-11T09:19:41.575Z,22.54
2018-01-11T09:20:41.530Z,21.26
2018-01-11T09:21:41.509Z,21.07
2018-01-11T09:22:41.502Z,19.85
2018-01-11T09:23:41.504Z,20.55
2018-01-11T09:24:41.493Z,21.73
2018-01-11T09:25:41.545Z,21.38
2018-01-11T09:26:41.471Z,19.97
2018-01-11T09:27:41.462Z,21.30
2018-01-11T09:28:41.451Z,23.17
2018-01-11T09:29:41.452Z,19.90
2018-01-11T09:30:41.441Z,18.92
2018-01-11T09:31:41.434Z,20.70
2018-01-11T09:32:41.429Z,19.76
2018-01-11T09:33:41.414Z,22.37
2018-01-11T09:34:41.406Z,30.29
2018-01-11T09:35:41.404Z,23.03
2018-01-11T09:36:41.398Z,24.07
2018-01-11T09:37:41.389Z,22.00
2018-01-11T09:38:42.202Z,20.46
2018-01-11T09:39:41.374Z,18.02
2018-01-11T09:40:41.376Z,19.20
2018-01-11T09:41:41.379Z,22.69
2018-01-11T09:42:41.348Z,20.88
2018-01-11T09:43:41.352Z,21.53
2018-01-11T09:44:41.341Z,20.44
2018-01-11T09:45:41.333Z,20.45
2018-01-11T09:46:41.328Z,21.87
2018-01-11T09:47:41.327Z,21.96
2018-01-11T09:48:41.318Z,22.46
2018-01-11T09:49:41.304Z,22.34
2018-01-11T09:50:41.308Z,22.82
2018-01-11T09:51:41.299Z,18.64
2018-01-11T09:52:41.287Z,20.25
2018-01-11T09:53:41.279Z,21.44
2018-01-11T09:54:41.271Z,17.08
2018-01-11T09:55:41.256Z,19.46
2018-01-11T09:56:41.260Z,17.68
2018-01-11T09:57:41.252Z,18.61
2018-01-11T09:58:41.241Z,19.43
2018-01-11T09:59:41.241Z,20.77
2018-01-11T10:00:41.236Z,20.44
2018-01-11T10:01:41.232Z,20.47
2018-01-11T10:02:41.223Z,20.96
2018-01-11T10:03:41.215Z,19.89
2018-01-11T10:04:41.209Z,24.12
2018-01-11T10:05:41.203Z,19.58
2018-01-11T10:06:41.201Z,20.77
2018-01-11T10:07:41.189Z,20.36
2018-01-11T10:08:41.187Z,19.64
2018-01-11T10:09:41.179Z,17.80
2018-01-11T10:10:41.171Z,21.19
2018-01-11T10:11:41.162Z,22.33
2018-01-11T10:12:41.151Z,22.57
2018-01-11T10:13:41.161Z,24.12
2018-01-11T10:14:41.141Z,23.22
2018-01-11T10:15:41.141Z,21.72
2018-01-11T10:16:41.142Z,22.20
2018-01-11T10:17:41.130Z,21.98
2018-01-11T10:18:41.119Z,18.14
2018-01-11T10:19:41.118Z,18.46
2018-01-11T10:20:41.722Z,19.84
2018-01-11T10:21:41.111Z,18.77
2018-01-11T10:22:41.095Z,19.67
2018-01-11T10:23:41.095Z,19.40
2018-01-11T10:24:41.087Z,21.88
2018-01-11T10:25:41.088Z,18.26
2018-01-11T10:26:41.071Z,19.20
2018-01-11T10:27:41.075Z,22.87
2018-01-11T10:28:41.052Z,20.76
2018-01-11T10:29:41.062Z,20.86
2018-01-11T10:30:41.054Z,20.34
2018-01-11T10:31:41.046Z,21.15
2018-01-11T10:32:41.040Z,21.74
2018-01-11T10:33:41.035Z,26.22
2018-01-11T10:34:41.025Z,18.55
2018-01-11T10:35:41.020Z,19.91
2018-01-11T10:36:41.005Z,20.49
2018-01-11T10:37:41.725Z,19.68
2018-01-11T10:38:41.004Z,19.92
2018-01-11T10:39:40.989Z,19.71
2018-01-11T10:40:40.991Z,19.48
2018-01-11T10:41:40.989Z,21.72
2018-01-11T10:42:40.994Z,19.62
2018-01-11T10:43:40.973Z,19.86
2018-01-11T10:44:41.721Z,18.76
2018-01-11T10:45:40.963Z,18.14
2018-01-11T10:46:40.963Z,21.37
2018-01-11T10:47:40.946Z,20.10
2018-01-11T10:48:40.943Z,18.91
2018-01-11T10:49:40.941Z,20.54
2018-01-11T10:50:40.934Z,17.88
2018-01-11T10:51:40.936Z,18.86
2018-01-11T10:52:40.921Z,18.62
2018-01-11T10:53:40.905Z,19.92
2018-01-11T10:54:40.908Z,19.48
2018-01-11T10:55:40.891Z,20.19
2018-01-11T10:56:41.742Z,18.22
2018-01-11T10:57:40.897Z,19.55
2018-01-11T10:58:41.732Z,19.81
2018-01-11T10:59:40.869Z,19.16
2018-01-11T11:00:40.871Z,19.12
2018-01-11T11:01:40.870Z,20.44
2018-01-11T11:02:41.734Z,18.67
2018-01-11T11:03:41.739Z,18.58
2018-01-11T11:04:40.871Z,19.59
2018-01-11T11:05:40.852Z,19.25
2018-01-11T11:06:40.851Z,18.92
2018-01-11T11:07:40.836Z,17.41
2018-01-11T11:07:52.847Z,0.71
2018-01-11T11:09:40.815Z,19.03
2018-01-11T11:10:40.806Z,18.02
2018-01-11T11:11:40.808Z,21.69
2018-01-11T11:12:40.811Z,19.00
2018-01-11T11:13:40.814Z,20.82
2018-01-11T11:14:40.795Z,20.08
2018-01-11T11:15:40.786Z,20.73
2018-01-11T11:16:40.803Z,19.50
2018-01-11T11:17:40.781Z,20.03
2018-01-11T11:18:43.752Z,18.47
2018-01-11T11:19:40.767Z,19.82
2018-01-11T11:20:41.744Z,17.51
2018-01-11T11:21:40.749Z,16.87
2018-01-11T11:22:40.745Z,18.88
2018-01-11T11:23:40.738Z,21.47
2018-01-11T11:24:41.240Z,20.07
2018-01-11T11:25:40.734Z,19.51
2018-01-11T11:26:40.721Z,20.10
2018-01-11T11:27:40.731Z,19.98
2018-01-11T11:28:41.245Z,20.31
2018-01-11T11:29:40.733Z,18.82
2018-01-11T11:30:40.704Z,19.75
2018-01-11T11:31:40.693Z,17.90
2018-01-11T11:32:40.697Z,18.39
2018-01-11T11:33:40.691Z,18.65
2018-01-11T11:34:40.686Z,19.16
2018-01-11T11:35:40.675Z,21.10
2018-01-11T11:36:40.681Z,21.64
2018-01-11T11:37:40.669Z,20.55
2018-01-11T11:38:40.664Z,20.62
2018-01-11T11:39:40.663Z,21.22
2018-01-11T11:40:40.654Z,23.30
2018-01-11T11:41:40.645Z,20.93
2018-01-11T11:42:40.642Z,21.25
2018-01-11T11:43:40.633Z,21.80
2018-01-11T11:44:40.640Z,19.54
2018-01-11T11:45:40.622Z,24.99
2018-01-11T11:46:40.620Z,21.89
2018-01-11T11:47:40.612Z,21.89
2018-01-11T11:48:40.611Z,20.61
2018-01-11T11:49:40.604Z,19.97
2018-01-11T11:50:40.602Z,20.62
2018-01-11T11:51:40.599Z,20.35
2018-01-11T11:52:40.582Z,20.79
2018-01-11T11:53:40.590Z,20.90
2018-01-11T11:54:40.597Z,19.41
2018-01-11T11:55:40.585Z,23.96
2018-01-11T11:56:40.567Z,19.48
2018-01-11T11:57:40.559Z,18.04
2018-01-11T11:58:40.561Z,20.28
2018-01-11T11:59:40.558Z,18.56
2018-01-11T12:00:40.546Z,20.26
2018-01-11T12:01:40.541Z,19.78
2018-01-11T12:02:40.531Z,20.26
2018-01-11T12:03:40.530Z,20.70
2018-01-11T12:04:40.535Z,21.40
2018-01-11T12:05:40.509Z,21.39
2018-01-11T12:06:40.523Z,19.49
2018-01-11T12:07:40.517Z,20.62
2018-01-11T12:08:40.501Z,18.88
2018-01-11T12:09:40.495Z,18.00
2018-01-11T12:10:40.483Z,20.67
2018-01-11T12:11:40.488Z,22.18
2018-01-11T12:12:40.480Z,19.74
2018-01-11T12:13:40.469Z,19.18
2018-01-11T12:14:40.464Z,22.47
2018-01-11T12:15:40.467Z,20.52
2018-01-11T12:16:40.474Z,19.58
2018-01-11T12:17:41.271Z,21.38
2018-01-11T12:18:40.445Z,22.75
2018-01-11T12:19:40.443Z,20.90
2018-01-11T12:20:40.431Z,21.01
2018-01-11T12:21:40.421Z,21.03
2018-01-11T12:22:40.416Z,18.35
2018-01-11T12:23:40.416Z,19.84
2018-01-11T12:24:40.403Z,22.79
2018-01-11T12:25:40.413Z,19.79
2018-01-11T12:26:40.429Z,19.85
2018-01-11T12:27:40.395Z,19.12
2018-01-11T12:28:40.386Z,20.12
2018-01-11T12:29:40.406Z,18.14
2018-01-11T12:30:40.392Z,17.37
2018-01-11T12:31:40.374Z,19.12
2018-01-11T12:32:41.279Z,14.92
2018-01-11T12:33:40.367Z,15.27
2018-01-11T12:34:43.272Z,15.93
2018-01-11T12:35:40.358Z,16.54
2018-01-11T12:36:40.360Z,15.36
2018-01-11T12:37:40.334Z,15.95
2018-01-11T12:38:41.273Z,18.39
2018-01-11T12:39:40.325Z,17.61
2018-01-11T12:40:40.319Z,15.98
2018-01-11T12:41:40.313Z,16.68
2018-01-11T12:42:40.302Z,15.02
2018-01-11T12:43:40.315Z,13.64
2018-01-11T12:44:40.304Z,14.52
2018-01-11T12:45:40.300Z,15.58
2018-01-11T12:46:40.301Z,14.78
2018-01-11T12:47:40.313Z,16.58
2018-01-11T12:48:40.284Z,15.03
2018-01-11T12:49:40.273Z,15.64
2018-01-11T12:49:52.276Z,0.66
2018-01-11T12:51:40.772Z,14.40
2018-01-11T12:52:40.257Z,13.40
2018-01-11T12:53:40.253Z,14.57
2018-01-11T12:54:40.245Z,13.39
2018-01-11T12:55:40.243Z,13.15
2018-01-11T12:56:40.236Z,13.94
2018-01-11T12:57:40.230Z,13.52
2018-01-11T12:58:40.223Z,14.28
2018-01-11T12:59:40.228Z,16.62
2018-01-11T13:00:40.784Z,15.82
2018-01-11T13:01:40.202Z,15.82
2018-01-11T13:02:40.193Z,15.52
2018-01-11T13:03:40.188Z,15.30
2018-01-11T13:04:40.184Z,14.25
2018-01-11T13:05:40.171Z,15.32
2018-01-11T13:06:40.782Z,17.12
2018-01-11T13:07:40.787Z,15.44
2018-01-11T13:08:40.169Z,16.94
2018-01-11T13:09:40.184Z,17.03
2018-01-11T13:10:40.153Z,18.72
2018-01-11T13:11:40.150Z,47.28